createdAt,value
2023-01-28T00:00:54.208Z,2.75
2023-01-28T00:03:22.317Z,2.99
2023-01-28T00:05:50.301Z,2.93
2023-01-28T00:08:18.083Z,3.18
2023-01-28T00:10:46.075Z,3.06
2023-01-28T00:13:15.600Z,3.09
2023-01-28T00:15:45.201Z,3.19
2023-01-28T00:18:13.716Z,2.48
2023-01-28T00:20:41.598Z,2.26
2023-01-28T00:23:09.482Z,3.66
2023-01-28T00:25:37.413Z,2.95
2023-01-28T00:28:05.522Z,3.98
2023-01-28T00:30:33.560Z,2.71
2023-01-28T00:33:02.839Z,2.82
2023-01-28T00:35:31.025Z,2.78
2023-01-28T00:37:59.760Z,2.82
2023-01-28T00:40:29.328Z,2.85
2023-01-28T00:42:57.891Z,3.02
2023-01-28T00:45:25.723Z,3.16
2023-01-28T00:47:53.622Z,3.14
2023-01-28T00:50:22.991Z,4.03
2023-01-28T00:52:50.880Z,4.39
2023-01-28T00:55:19.955Z,4.57
2023-01-28T00:57:48.756Z,4.60
2023-01-28T01:00:19.108Z,4.80
2023-01-28T01:02:47.050Z,4.62
2023-01-28T01:05:15.714Z,4.61
2023-01-28T01:07:45.674Z,4.48
2023-01-28T01:10:15.691Z,4.59
2023-01-28T01:12:44.727Z,4.75
2023-01-28T01:15:13.424Z,4.58
2023-01-28T01:17:43.981Z,3.67
2023-01-28T01:20:15.551Z,4.33
2023-01-28T01:22:43.489Z,4.26
2023-01-28T01:25:13.944Z,3.73
2023-01-28T01:27:45.054Z,3.28
2023-01-28T01:30:14.180Z,3.48
2023-01-28T01:32:42.249Z,3.41
2023-01-28T01:35:11.755Z,3.51
2023-01-28T01:37:40.860Z,4.59
2023-01-28T01:40:10.428Z,3.76
2023-01-28T01:42:39.574Z,4.26
2023-01-28T01:45:08.777Z,4.28
2023-01-28T01:47:42.689Z,4.50
2023-01-28T01:50:18.673Z,4.27
2023-01-28T01:52:49.505Z,4.41
2023-01-28T01:55:22.331Z,4.55
2023-01-28T01:57:56.589Z,4.50
2023-01-28T02:00:25.490Z,4.48
2023-01-28T02:02:54.612Z,4.60
2023-01-28T02:05:23.578Z,4.78
2023-01-28T02:11:38.292Z,4.40
2023-01-28T02:14:14.453Z,4.08
2023-01-28T02:16:42.284Z,4.40
2023-01-28T02:19:13.374Z,4.21
2023-01-28T02:22:00.350Z,4.23
2023-01-28T02:25:01.262Z,4.15
2023-01-28T02:27:36.575Z,4.28
2023-01-28T02:30:12.137Z,3.44
2023-01-28T02:32:46.376Z,3.11
2023-01-28T02:35:19.668Z,3.42
2023-01-28T02:37:54.428Z,3.05
2023-01-28T02:40:29.822Z,4.20
2023-01-28T02:42:58.247Z,4.13
2023-01-28T02:45:52.969Z,4.17
2023-01-28T02:48:23.697Z,3.41
2023-01-28T02:51:00.727Z,4.10
2023-01-28T02:53:44.836Z,4.00
2023-01-28T02:56:22.040Z,4.38
2023-01-28T02:58:59.759Z,4.08
2023-01-28T03:01:36.757Z,4.52
2023-01-28T03:04:08.663Z,4.56
2023-01-28T03:06:41.508Z,4.13
2023-01-28T03:09:29.338Z,4.13
2023-01-28T03:12:19.495Z,4.15
2023-01-28T03:15:09.380Z,4.29
2023-01-28T03:18:00.906Z,4.09
2023-01-28T03:20:53.970Z,4.34
2023-01-28T03:23:51.411Z,4.48
2023-01-28T03:26:41.613Z,4.49
2023-01-28T03:29:30.904Z,4.11
2023-01-28T03:32:17.930Z,4.04
2023-01-28T03:35:05.839Z,4.07
2023-01-28T03:37:35.085Z,4.43
2023-01-28T03:40:18.903Z,3.99
2023-01-28T03:42:46.715Z,4.16
2023-01-28T03:45:34.878Z,3.82
2023-01-28T03:48:05.238Z,4.11
2023-01-28T03:50:35.386Z,4.02
2023-01-28T03:53:16.420Z,3.80
2023-01-28T03:55:54.682Z,3.88
2023-01-28T03:58:23.051Z,3.56
2023-01-28T04:00:52.049Z,3.47
2023-01-28T04:03:21.644Z,3.56
2023-01-28T04:06:04.227Z,3.48
2023-01-28T04:08:54.495Z,3.72
2023-01-28T04:11:28.351Z,2.84
2023-01-28T04:13:57.795Z,2.71
2023-01-28T04:16:26.920Z,2.73
2023-01-28T04:18:55.315Z,2.59
2023-01-28T04:21:24.645Z,2.82
2023-01-28T04:23:53.295Z,2.62
2023-01-28T04:26:21.127Z,2.67
2023-01-28T04:28:48.921Z,2.51
2023-01-28T04:31:27.261Z,2.74
2023-01-28T04:34:15.199Z,2.35
2023-01-28T04:37:16.640Z,2.42
2023-01-28T04:39:56.519Z,2.17
2023-01-28T04:42:54.281Z,2.28
2023-01-28T04:45:48.072Z,2.98
2023-01-28T04:48:34.739Z,3.54
2023-01-28T04:51:17.876Z,3.77
2023-01-28T04:54:07.557Z,3.99
2023-01-28T04:56:36.618Z,3.65
2023-01-28T04:59:05.283Z,3.50
2023-01-28T05:01:35.818Z,3.78
2023-01-28T05:04:05.722Z,3.25
2023-01-28T05:06:35.919Z,2.37
2023-01-28T05:09:11.083Z,2.62
2023-01-28T05:11:39.366Z,2.36
2023-01-28T05:14:08.305Z,2.39
2023-01-28T05:16:46.044Z,2.44
2023-01-28T05:19:13.899Z,2.35
2023-01-28T05:21:43.593Z,3.04
2023-01-28T05:24:35.526Z,3.28
2023-01-28T05:27:04.451Z,3.19
2023-01-28T05:29:33.879Z,3.04
2023-01-28T05:32:01.777Z,3.24
2023-01-28T05:34:30.828Z,2.50
2023-01-28T05:37:01.294Z,2.12
2023-01-28T05:39:32.385Z,1.98
2023-01-28T05:42:01.839Z,2.64
2023-01-28T05:44:30.530Z,2.01
2023-01-28T05:47:18.661Z,1.96
2023-01-28T05:49:56.810Z,1.93
2023-01-28T05:52:33.513Z,2.11
2023-01-28T05:55:02.344Z,1.99
2023-01-28T05:57:31.592Z,1.91
2023-01-28T05:59:59.448Z,1.94
2023-01-28T06:02:27.928Z,3.16
2023-01-28T06:04:58.343Z,2.97
2023-01-28T06:07:26.183Z,3.23
2023-01-28T06:09:53.963Z,2.83
2023-01-28T06:12:23.083Z,2.74
2023-01-28T06:15:13.087Z,3.59
2023-01-28T06:18:13.144Z,3.47
2023-01-28T06:20:41.846Z,3.26
2023-01-28T06:23:09.627Z,2.90
2023-01-28T06:25:37.557Z,2.73
2023-01-28T06:28:10.773Z,3.02
2023-01-28T06:30:40.004Z,3.24
2023-01-28T06:33:07.830Z,3.09
2023-01-28T06:35:36.714Z,2.76
2023-01-28T06:38:05.125Z,2.83
2023-01-28T06:40:32.919Z,2.76
2023-01-28T06:43:00.714Z,2.96
2023-01-28T06:45:28.450Z,2.89
2023-01-28T06:47:57.621Z,3.18
2023-01-28T06:50:25.767Z,2.26
2023-01-28T06:52:53.532Z,2.79
2023-01-28T06:55:21.271Z,2.63
2023-01-28T06:57:49.035Z,2.74
2023-01-28T07:00:17.790Z,2.62
2023-01-28T07:02:45.884Z,2.82
2023-01-28T07:05:15.168Z,2.83
2023-01-28T07:07:42.886Z,2.56
2023-01-28T07:10:11.959Z,3.09
2023-01-28T07:12:40.089Z,2.76
2023-01-28T07:15:10.845Z,2.84
2023-01-28T07:17:40.469Z,3.01
2023-01-28T07:20:09.320Z,3.35
2023-01-28T07:22:39.526Z,2.92
2023-01-28T07:25:08.362Z,3.18
2023-01-28T07:27:36.461Z,3.07
2023-01-28T07:30:04.493Z,2.52
2023-01-28T07:32:32.387Z,1.79
2023-01-28T07:35:00.114Z,1.81
2023-01-28T07:37:27.858Z,1.51
2023-01-28T07:39:56.996Z,1.42
2023-01-28T07:42:24.855Z,1.86
2023-01-28T07:44:53.863Z,1.99
2023-01-28T07:47:21.736Z,1.93
2023-01-28T07:49:49.635Z,2.03
2023-01-28T07:52:17.371Z,1.79
2023-01-28T07:54:45.170Z,1.61
2023-01-28T07:57:14.357Z,1.67
2023-01-28T07:59:42.121Z,1.70
2023-01-28T08:02:13.298Z,1.74
2023-01-28T08:04:41.556Z,1.82
2023-01-28T08:07:09.437Z,1.72
2023-01-28T08:09:37.257Z,1.61
2023-01-28T08:12:05.570Z,1.73
2023-01-28T08:14:34.686Z,2.02
2023-01-28T08:17:02.620Z,2.16
2023-01-28T08:19:30.343Z,2.24
2023-01-28T08:21:58.112Z,2.18
2023-01-28T08:24:26.050Z,1.98
2023-01-28T08:26:53.836Z,2.26
2023-01-28T08:29:21.841Z,2.25
2023-01-28T08:31:51.032Z,2.14
2023-01-28T08:34:18.849Z,2.44
2023-01-28T08:36:46.650Z,1.79
2023-01-28T08:39:14.492Z,2.07
2023-01-28T08:41:42.289Z,2.35
2023-01-28T08:44:10.017Z,2.24
2023-01-28T08:46:37.855Z,2.86
2023-01-28T08:49:07.018Z,2.95
2023-01-28T08:51:34.850Z,2.42
2023-01-28T08:54:02.749Z,2.34
2023-01-28T08:56:31.461Z,2.28
2023-01-28T08:58:59.205Z,2.52
2023-01-28T09:01:29.358Z,2.49
2023-01-28T09:03:57.336Z,3.55
2023-01-28T09:06:26.588Z,3.92
2023-01-28T09:08:57.394Z,4.15
2023-01-28T09:11:25.355Z,4.23
2023-01-28T09:13:53.236Z,4.21
2023-01-28T09:16:21.082Z,2.55
2023-01-28T09:18:49.348Z,2.18
2023-01-28T09:21:17.350Z,2.35
2023-01-28T09:23:46.537Z,2.60
2023-01-28T09:26:14.944Z,2.72
2023-01-28T09:28:42.828Z,1.88
2023-01-28T09:31:12.773Z,2.17
2023-01-28T09:33:41.643Z,2.49
2023-01-28T09:36:12.532Z,2.38
2023-01-28T09:38:40.401Z,2.88
2023-01-28T09:41:26.109Z,2.57
2023-01-28T09:44:25.372Z,2.54
2023-01-28T09:46:53.473Z,2.58
2023-01-28T09:49:28.998Z,3.01
2023-01-28T09:51:57.828Z,2.59
2023-01-28T09:54:34.453Z,2.18
2023-01-28T09:57:09.592Z,2.28
2023-01-28T09:59:38.072Z,2.68
2023-01-28T10:02:27.221Z,2.94
2023-01-28T10:05:04.481Z,2.64
2023-01-28T10:07:41.700Z,2.82
2023-01-28T10:10:15.003Z,2.66
2023-01-28T10:13:04.826Z,2.45
2023-01-28T10:15:58.216Z,2.60
2023-01-28T10:18:34.281Z,2.48
2023-01-28T10:21:09.371Z,2.57
2023-01-28T10:23:58.436Z,2.86
2023-01-28T10:26:31.301Z,3.01
2023-01-28T10:29:06.053Z,2.94
2023-01-28T10:31:38.852Z,3.19
2023-01-28T10:34:06.993Z,2.64
2023-01-28T10:36:35.434Z,2.83
2023-01-28T10:39:03.457Z,3.13
2023-01-28T10:41:31.241Z,2.79
2023-01-28T10:44:00.660Z,3.23
2023-01-28T10:46:33.392Z,3.40
2023-01-28T10:49:11.496Z,2.91
2023-01-28T10:51:40.845Z,3.31
2023-01-28T10:54:20.728Z,3.20
2023-01-28T10:56:51.435Z,3.53
2023-01-28T10:59:23.747Z,3.08
2023-01-28T11:01:54.152Z,2.91
2023-01-28T11:04:25.657Z,2.90
2023-01-28T11:07:00.160Z,2.77
2023-01-28T11:09:30.836Z,2.73
2023-01-28T11:11:59.662Z,3.04
2023-01-28T11:14:28.947Z,3.29
2023-01-28T11:16:59.327Z,3.07
2023-01-28T11:19:33.528Z,3.57
2023-01-28T11:22:01.911Z,3.41
2023-01-28T11:24:33.291Z,3.46
2023-01-28T11:27:16.175Z,3.76
2023-01-28T11:29:46.036Z,4.51
2023-01-28T11:32:22.146Z,3.18
2023-01-28T11:34:51.477Z,2.86
2023-01-28T11:37:22.793Z,3.23
2023-01-28T11:39:50.798Z,3.21
2023-01-28T11:42:20.779Z,3.38
2023-01-28T11:44:51.187Z,3.03
2023-01-28T11:47:35.419Z,3.12
2023-01-28T11:50:23.999Z,2.76
2023-01-28T11:53:07.029Z,2.89
2023-01-28T11:55:46.312Z,3.17
2023-01-28T11:58:24.040Z,2.86
2023-01-28T12:01:03.889Z,2.84
2023-01-28T12:03:49.961Z,2.98
2023-01-28T12:06:40.066Z,2.57
2023-01-28T12:09:17.793Z,2.92
2023-01-28T12:12:13.570Z,3.10
2023-01-28T12:15:05.904Z,2.75
2023-01-28T12:17:48.217Z,3.39
2023-01-28T12:20:25.767Z,3.33
2023-01-28T12:23:19.437Z,2.80
2023-01-28T12:26:09.006Z,3.23
2023-01-28T12:28:52.584Z,3.04
2023-01-28T12:31:40.180Z,3.34
2023-01-28T12:34:41.166Z,3.53
2023-01-28T12:37:17.826Z,4.25
2023-01-28T12:39:59.229Z,3.85
2023-01-28T12:42:36.778Z,4.34
2023-01-28T12:45:16.374Z,4.81
2023-01-28T12:47:49.311Z,5.01
2023-01-28T12:50:23.845Z,4.49
2023-01-28T12:52:56.990Z,4.29
2023-01-28T12:55:39.612Z,4.94
2023-01-28T12:58:17.059Z,4.73
2023-01-28T13:00:49.684Z,5.59
2023-01-28T13:03:23.574Z,4.91
2023-01-28T13:05:56.965Z,4.77
2023-01-28T13:08:26.629Z,4.12
2023-01-28T13:10:56.086Z,4.47
2023-01-28T13:13:30.350Z,7.67
2023-01-28T13:15:58.546Z,7.28
2023-01-28T13:18:35.328Z,5.95
2023-01-28T13:21:06.586Z,5.86
2023-01-28T13:23:40.363Z,5.36
2023-01-28T13:26:27.748Z,4.11
2023-01-28T13:29:08.182Z,4.45
2023-01-28T13:31:40.207Z,3.78
2023-01-28T13:34:09.585Z,4.26
2023-01-28T13:36:45.878Z,4.87
2023-01-28T13:39:20.607Z,4.63
2023-01-28T13:41:51.835Z,3.78
2023-01-28T13:44:29.184Z,4.63
2023-01-28T13:46:59.699Z,4.55
2023-01-28T13:49:33.866Z,4.56
2023-01-28T13:52:09.121Z,3.21
2023-01-28T13:54:39.785Z,3.30
2023-01-28T13:58:13.117Z,4.18
2023-01-28T14:00:53.137Z,4.54
2023-01-28T14:03:50.127Z,4.21
2023-01-28T14:06:37.654Z,3.92
2023-01-28T14:09:23.769Z,4.08
2023-01-28T14:12:29.189Z,4.72
2023-01-28T14:15:17.347Z,4.95
2023-01-28T14:17:47.126Z,5.96
2023-01-28T14:20:19.675Z,7.60
2023-01-28T14:22:48.495Z,7.81
2023-01-28T14:25:24.702Z,7.42
2023-01-28T14:27:54.748Z,6.22
2023-01-28T14:30:29.989Z,6.73
2023-01-28T14:32:57.956Z,6.60
2023-01-28T14:35:32.562Z,6.32
2023-01-28T14:38:07.806Z,6.82
2023-01-28T14:40:40.469Z,8.28
2023-01-28T14:43:10.125Z,8.30
2023-01-28T14:45:57.505Z,9.76
2023-01-28T14:48:27.480Z,10.41
2023-01-28T14:51:09.824Z,8.69
2023-01-28T14:54:03.012Z,10.06
2023-01-28T14:56:44.345Z,10.68
2023-01-28T14:59:19.460Z,11.04
2023-01-28T15:01:48.998Z,11.39
2023-01-28T15:04:25.316Z,10.02
2023-01-28T15:06:53.199Z,11.73
2023-01-28T15:09:24.605Z,10.92
2023-01-28T15:11:58.114Z,10.24
2023-01-28T15:14:28.831Z,9.54
2023-01-28T15:16:57.380Z,9.45
2023-01-28T15:19:28.985Z,9.34
2023-01-28T15:21:58.582Z,9.08
2023-01-28T15:24:26.908Z,8.76
2023-01-28T15:26:56.168Z,7.97
2023-01-28T15:29:31.538Z,6.65
2023-01-28T15:32:00.162Z,6.43
2023-01-28T15:34:30.309Z,6.48
2023-01-28T15:36:58.746Z,6.68
2023-01-28T15:39:28.598Z,6.67
2023-01-28T15:42:00.288Z,6.61
2023-01-28T15:44:31.278Z,5.36
2023-01-28T15:47:00.390Z,5.26
2023-01-28T15:49:32.361Z,5.43
2023-01-28T15:52:00.631Z,5.40
2023-01-28T15:54:30.429Z,5.21
2023-01-28T15:57:10.493Z,5.32
2023-01-28T15:59:38.270Z,5.10
2023-01-28T16:02:18.542Z,5.13
2023-01-28T16:04:57.226Z,4.64
2023-01-28T16:07:25.288Z,4.45
2023-01-28T16:09:54.198Z,4.42
2023-01-28T16:12:24.310Z,4.08
2023-01-28T16:14:55.298Z,3.84
2023-01-28T16:17:25.957Z,3.29
2023-01-28T16:19:59.842Z,3.17
2023-01-28T16:22:34.445Z,3.22
2023-01-28T16:25:03.144Z,3.63
2023-01-28T16:27:32.400Z,3.27
2023-01-28T16:30:00.411Z,3.27
2023-01-28T16:32:30.536Z,3.26
2023-01-28T16:34:58.464Z,3.28
2023-01-28T16:39:55.161Z,3.13
2023-01-28T16:42:23.021Z,2.79
2023-01-28T16:44:52.304Z,2.71
2023-01-28T16:47:20.127Z,2.54
2023-01-28T16:49:47.972Z,2.48
2023-01-28T16:52:17.191Z,2.50
2023-01-28T16:54:46.464Z,2.56
2023-01-28T16:57:16.566Z,2.46
2023-01-28T16:59:44.530Z,1.31
2023-01-28T17:02:15.436Z,0.88
2023-01-28T17:04:43.334Z,0.57
2023-01-28T17:07:11.320Z,0.69
2023-01-28T17:09:39.130Z,0.66
2023-01-28T17:12:07.579Z,0.51
2023-01-28T17:14:35.443Z,0.41
2023-01-28T17:17:03.241Z,0.34
2023-01-28T17:19:32.484Z,0.96
2023-01-28T17:22:00.358Z,0.56
2023-01-28T17:24:30.375Z,0.40
2023-01-28T17:26:58.982Z,0.32
2023-01-28T17:29:27.070Z,0.33
2023-01-28T17:31:54.872Z,0.01
2023-01-28T17:34:22.866Z,1.32
2023-01-28T17:36:52.001Z,1.60
2023-01-28T17:39:19.773Z,0.59
2023-01-28T17:41:47.544Z,0.42
2023-01-28T17:44:15.376Z,1.21
2023-01-28T17:46:43.313Z,1.31
2023-01-28T17:49:11.497Z,1.39
2023-01-28T17:51:39.262Z,1.43
2023-01-28T17:54:08.472Z,1.50
2023-01-28T17:56:36.282Z,1.50
2023-01-28T17:59:06.497Z,1.64
2023-01-28T18:01:37.088Z,1.80
2023-01-28T18:04:05.834Z,1.58
2023-01-28T18:06:34.153Z,1.31
2023-01-28T18:09:02.055Z,0.95
2023-01-28T18:11:32.842Z,1.16
2023-01-28T18:14:00.711Z,1.31
2023-01-28T18:16:28.530Z,1.28
2023-01-28T18:18:56.282Z,1.25
2023-01-28T18:21:43.046Z,1.20
2023-01-28T18:24:14.619Z,1.12
2023-01-28T18:26:43.776Z,0.46
2023-01-28T18:29:16.498Z,0.28
2023-01-28T18:31:44.387Z,-0.09
2023-01-28T18:34:12.488Z,-0.31
2023-01-28T18:36:40.360Z,-0.37
2023-01-28T18:39:08.142Z,-0.26
2023-01-28T18:41:35.925Z,-0.27
2023-01-28T18:44:05.421Z,-0.13
2023-01-28T18:46:33.254Z,-0.28
2023-01-28T18:49:01.153Z,-0.22
2023-01-28T18:51:30.658Z,-0.29
2023-01-28T18:53:59.863Z,-0.47
2023-01-28T18:56:28.189Z,-0.56
2023-01-28T18:58:57.384Z,-0.45
2023-01-28T19:01:27.143Z,-0.23
2023-01-28T19:03:55.818Z,-0.20
2023-01-28T19:06:24.838Z,-0.25
2023-01-28T19:08:54.510Z,-0.42
2023-01-28T19:11:23.191Z,-0.34
2023-01-28T19:13:51.200Z,-0.31
2023-01-28T19:16:19.226Z,-0.56
2023-01-28T19:18:54.231Z,-0.38
2023-01-28T19:21:22.636Z,-0.54
2023-01-28T19:23:56.190Z,-0.48
2023-01-28T19:26:25.212Z,-0.85
2023-01-28T19:28:53.023Z,-0.72
2023-01-28T19:31:22.393Z,-0.99
2023-01-28T19:33:54.381Z,-1.03
2023-01-28T19:36:24.383Z,-0.82
2023-01-28T19:38:52.164Z,-0.77
2023-01-28T19:41:20.023Z,-1.04
2023-01-28T19:43:48.385Z,-1.01
2023-01-28T19:46:18.015Z,-0.92
2023-01-28T19:48:46.505Z,-1.15
2023-01-28T19:51:16.123Z,-1.03
2023-01-28T19:53:45.924Z,-0.93
2023-01-28T19:56:15.532Z,-1.10
2023-01-28T19:58:44.632Z,-1.09
2023-01-28T20:01:14.603Z,-1.10
2023-01-28T20:03:43.426Z,-1.05
2023-01-28T20:06:13.751Z,-1.15
2023-01-28T20:08:42.012Z,-1.08
2023-01-28T20:11:13.388Z,-1.12
2023-01-28T20:13:42.903Z,-0.97
2023-01-28T20:16:16.436Z,-1.13
2023-01-28T20:18:44.512Z,-1.13
2023-01-28T20:21:12.306Z,-1.38
2023-01-28T20:23:40.041Z,-1.31
2023-01-28T20:26:07.829Z,-1.32
2023-01-28T20:28:36.970Z,-1.33
2023-01-28T20:31:06.354Z,-1.33
2023-01-28T20:33:34.207Z,-1.31
2023-01-28T20:36:02.946Z,-1.01
2023-01-28T20:38:31.109Z,-1.35
2023-01-28T20:40:58.948Z,-1.29
2023-01-28T20:43:28.639Z,-0.99
2023-01-28T20:46:04.837Z,-1.37
2023-01-28T20:48:33.297Z,-1.44
2023-01-28T20:51:06.369Z,-1.86
2023-01-28T20:53:34.264Z,-1.70
2023-01-28T20:56:02.059Z,-1.45
2023-01-28T20:58:29.978Z,-1.34
2023-01-28T21:00:57.816Z,-1.37
2023-01-28T21:03:27.832Z,-1.45
2023-01-28T21:05:55.705Z,-1.38
2023-01-28T21:08:23.959Z,-1.52
2023-01-28T21:10:51.706Z,-1.64
2023-01-28T21:13:20.494Z,-1.56
2023-01-28T21:15:55.966Z,-1.40
2023-01-28T21:18:24.483Z,-1.67
2023-01-28T21:20:55.013Z,-1.78
2023-01-28T21:23:23.879Z,-1.76
2023-01-28T21:25:52.458Z,-1.76
2023-01-28T21:28:21.061Z,-1.74
2023-01-28T21:30:48.837Z,-1.86
2023-01-28T21:33:16.729Z,-1.83
2023-01-28T21:35:44.869Z,-1.80
2023-01-28T21:38:14.202Z,-1.91
2023-01-28T21:40:42.158Z,-1.72
2023-01-28T21:43:12.489Z,-1.60
2023-01-28T21:45:41.210Z,-1.53
2023-01-28T21:48:08.927Z,-1.28
2023-01-28T21:50:56.827Z,-1.57
2023-01-28T21:53:25.969Z,-2.19
2023-01-28T21:55:53.798Z,-1.65
2023-01-28T21:58:39.216Z,-1.53
2023-01-28T22:01:10.620Z,-1.68
2023-01-28T22:03:38.411Z,-1.69
2023-01-28T22:06:06.707Z,-1.58
2023-01-28T22:08:35.918Z,-1.43
2023-01-28T22:11:05.033Z,-1.10
2023-01-28T22:13:33.533Z,-1.12
2023-01-28T22:16:01.571Z,-1.44
2023-01-28T22:18:29.387Z,-1.61
2023-01-28T22:20:58.495Z,-1.93
2023-01-28T22:23:26.461Z,-2.18
2023-01-28T22:25:55.819Z,-1.97
2023-01-28T22:28:23.774Z,-1.30
2023-01-28T22:30:51.585Z,-1.43
2023-01-28T22:33:19.428Z,-1.46
2023-01-28T22:35:47.440Z,-1.53
2023-01-28T22:38:15.853Z,-1.40
2023-01-28T22:40:43.603Z,-1.49
2023-01-28T22:43:12.763Z,-1.47
2023-01-28T22:45:40.557Z,-1.52
2023-01-28T22:48:08.266Z,-1.39
2023-01-28T22:50:36.095Z,-1.78
2023-01-28T22:53:04.111Z,-1.96
2023-01-28T22:55:33.494Z,-2.50
2023-01-28T22:58:01.563Z,-2.22
2023-01-28T23:00:30.727Z,-2.47
2023-01-28T23:02:58.523Z,-1.98
2023-01-28T23:05:27.158Z,-2.08
2023-01-28T23:08:10.410Z,-1.80
2023-01-28T23:10:38.736Z,-2.06
2023-01-28T23:13:07.232Z,-2.07
2023-01-28T23:15:53.682Z,-2.02
2023-01-28T23:18:42.978Z,-1.70
2023-01-28T23:21:35.274Z,-1.53
2023-01-28T23:24:22.040Z,-1.59
2023-01-28T23:26:54.504Z,-1.98
2023-01-28T23:29:24.762Z,-1.99
2023-01-28T23:32:00.906Z,-2.02
2023-01-28T23:34:31.861Z,-1.99
2023-01-28T23:36:59.665Z,-1.84
2023-01-28T23:39:27.599Z,-1.96
2023-01-28T23:41:55.396Z,-1.00
2023-01-28T23:44:26.666Z,-1.72
2023-01-28T23:46:56.350Z,-1.39
2023-01-28T23:49:24.281Z,-1.96
2023-01-28T23:51:52.075Z,-1.95
2023-01-28T23:54:19.987Z,-2.13
2023-01-28T23:56:47.767Z,-2.16
2023-01-28T23:59:15.606Z,-1.98
